Bora Bora Airport

NTTB · French Polynesia

METAR NTTB · 博拉博拉島機場

21 四月 16:30 LT
10m
使用的METAR站距离机场259 km。
罗盘
风向 的 风向 050° 博拉博拉島機場 11/29
风: 7 kt, 3 beaufort

2 kt

7 kt
改变
0 ft 6.000 12.000 18.000 24.000 30.000
Cloud Cloud
FEW 2.000
Cloud Cloud Cloud Cloud
SCT 10.000
Cloud Cloud Cloud Cloud Cloud Cloud
BKN 26.000
METAR NTAA 220230Z 05007KT 9999 FEW020 SCT100 BKN260 27/23 Q1009 NOSIG

METAR 博拉博拉島機場 - NTTB/BOB

博拉博拉島機場是,French Polynesia中的中型机场。 该机场位于纬度-16,44438和经度-151,75126。 该机场有一条跑道: 11/29. 本场的ICAO机场代码为NTTB。 该机场的IATA代码为BOB。 机场在Tahiti FIR中。

该航空气象观测是针对Faa'a International Airport在2024年4月21日 16:30, 当地时间进行的。

机场观察

风向为050°,速度为7 kt。

可见度为10 km 或者更多。

有几云在2.000 ft的高度, 疏云,零星散落的云朵在10.000 ft的高度 和 碎云在26.000 ft的高度。 破损或更高的上限为26.000 ft。

温度和风寒是27 °C。 热指数为30。 露点为23 °C,相对湿度为79%。 海平面上的气压为1009 hPa (QNH)。

白天

今天,太阳从06:16升起,在17:53降落。 这适用于博拉博拉島機場,世界夏令时可能有所不同。 当地时间与世界标准时间之间的时差为-10 小时。 夏令时目前正在进行中。

公司介绍

我们没有关于这个机场的公司信息。

体会

到Vliegles.nl去找飞行课程,跳伞和其他飞行体验。 浏览页面,了解博拉博拉島機場附近所有可用的活动。 你也可以使用搜索功能来寻找你所在地附近的特定飞行课程、跳伞或其他飞行体验。

跑道

Id 标题 侧风 逆风 侧风 %
11/29 125°-305° 7 kt 2 kt 97 %

逆风成分最大的方向会被突出显示,并用于横风计算。 这并不一定意味着这个方向在使用。

乌云

2.000 ft FEW 几云
10.000 ft SCT 疏云,零星散落的云朵
26.000 ft BKN 碎云

温度 & 天气

温度 27 °C
露点 23 °C
相对湿度 79%
热度指数 30 °C
Kp-index 2 (0-9)

白天

日出
06:09 (13:29)
中午
11:56
日落
17:44

小工具

你想在你的网站上有一个关于博拉博拉島機場的当前航空天气(METAR)的小部件吗?

显示HTML代码
报告变更